sensor_id;sensor_type;location;lat;lon;timestamp;P1;durP1;ratioP1;P2;durP2;ratioP2
6775;SDS011;3425;51.376;5.222;2023-12-20T00:00:36;13.80;;;13.10;;
6775;SDS011;3425;51.376;5.222;2023-12-20T00:03:04;13.88;;;13.15;;
6775;SDS011;3425;51.376;5.222;2023-12-20T00:05:31;13.57;;;12.88;;
6775;SDS011;3425;51.376;5.222;2023-12-20T00:07:59;13.98;;;13.20;;
6775;SDS011;3425;51.376;5.222;2023-12-20T00:10:29;12.77;;;12.18;;
6775;SDS011;3425;51.376;5.222;2023-12-20T00:12:56;13.20;;;12.50;;
6775;SDS011;3425;51.376;5.222;2023-12-20T00:15:24;24.08;;;13.55;;
6775;SDS011;3425;51.376;5.222;2023-12-20T00:17:51;14.43;;;13.63;;
6775;SDS011;3425;51.376;5.222;2023-12-20T00:20:18;13.68;;;12.98;;
6775;SDS011;3425;51.376;5.222;2023-12-20T00:22:46;13.40;;;12.70;;
6775;SDS011;3425;51.376;5.222;2023-12-20T00:25:13;13.65;;;12.95;;
6775;SDS011;3425;51.376;5.222;2023-12-20T00:27:41;13.57;;;12.88;;
6775;SDS011;3425;51.376;5.222;2023-12-20T00:30:09;13.45;;;12.75;;
6775;SDS011;3425;51.376;5.222;2023-12-20T00:32:38;14.95;;;13.77;;
6775;SDS011;3425;51.376;5.222;2023-12-20T00:35:05;13.90;;;12.98;;
6775;SDS011;3425;51.376;5.222;2023-12-20T00:37:32;13.40;;;12.70;;
6775;SDS011;3425;51.376;5.222;2023-12-20T00:40:00;13.27;;;12.57;;
6775;SDS011;3425;51.376;5.222;2023-12-20T00:42:27;13.27;;;12.57;;
6775;SDS011;3425;51.376;5.222;2023-12-20T00:44:54;13.18;;;12.50;;
6775;SDS011;3425;51.376;5.222;2023-12-20T00:47:22;13.50;;;12.80;;
6775;SDS011;3425;51.376;5.222;2023-12-20T00:49:49;13.70;;;13.00;;
6775;SDS011;3425;51.376;5.222;2023-12-20T00:52:16;13.73;;;13.02;;
6775;SDS011;3425;51.376;5.222;2023-12-20T00:54:45;13.80;;;13.10;;
6775;SDS011;3425;51.376;5.222;2023-12-20T00:57:12;15.52;;;14.52;;
6775;SDS011;3425;51.376;5.222;2023-12-20T00:59:40;14.18;;;13.38;;
6775;SDS011;3425;51.376;5.222;2023-12-20T01:02:07;13.85;;;13.15;;
6775;SDS011;3425;51.376;5.222;2023-12-20T01:04:35;14.55;;;13.75;;
6775;SDS011;3425;51.376;5.222;2023-12-20T01:07:02;13.75;;;13.05;;
6775;SDS011;3425;51.376;5.222;2023-12-20T01:09:30;14.25;;;13.45;;
6775;SDS011;3425;51.376;5.222;2023-12-20T01:11:57;13.57;;;12.88;;
6775;SDS011;3425;51.376;5.222;2023-12-20T01:14:25;13.60;;;12.90;;
6775;SDS011;3425;51.376;5.222;2023-12-20T01:16:52;16.25;;;15.00;;
6775;SDS011;3425;51.376;5.222;2023-12-20T01:19:19;13.93;;;13.13;;
6775;SDS011;3425;51.376;5.222;2023-12-20T01:21:47;13.95;;;13.23;;
6775;SDS011;3425;51.376;5.222;2023-12-20T01:24:14;13.70;;;13.00;;
6775;SDS011;3425;51.376;5.222;2023-12-20T01:26:42;13.75;;;13.02;;
6775;SDS011;3425;51.376;5.222;2023-12-20T01:29:09;13.30;;;12.60;;
6775;SDS011;3425;51.376;5.222;2023-12-20T01:31:37;13.30;;;12.60;;
6775;SDS011;3425;51.376;5.222;2023-12-20T01:34:04;13.68;;;12.98;;
6775;SDS011;3425;51.376;5.222;2023-12-20T01:36:33;13.30;;;12.60;;
6775;SDS011;3425;51.376;5.222;2023-12-20T01:39:01;13.43;;;12.73;;
6775;SDS011;3425;51.376;5.222;2023-12-20T01:41:35;13.70;;;13.00;;
6775;SDS011;3425;51.376;5.222;2023-12-20T01:44:03;13.23;;;12.52;;
6775;SDS011;3425;51.376;5.222;2023-12-20T01:46:30;14.82;;;13.65;;
6775;SDS011;3425;51.376;5.222;2023-12-20T01:48:57;13.30;;;12.60;;
6775;SDS011;3425;51.376;5.222;2023-12-20T01:51:25;13.63;;;12.80;;
6775;SDS011;3425;51.376;5.222;2023-12-20T01:53:54;13.30;;;12.60;;
6775;SDS011;3425;51.376;5.222;2023-12-20T01:56:23;13.68;;;12.98;;
6775;SDS011;3425;51.376;5.222;2023-12-20T01:58:50;14.98;;;13.85;;
6775;SDS011;3425;51.376;5.222;2023-12-20T02:01:17;13.45;;;12.68;;
6775;SDS011;3425;51.376;5.222;2023-12-20T02:03:44;12.95;;;12.35;;
6775;SDS011;3425;51.376;5.222;2023-12-20T02:06:12;14.15;;;13.05;;
6775;SDS011;3425;51.376;5.222;2023-12-20T02:08:40;12.88;;;12.27;;
6775;SDS011;3425;51.376;5.222;2023-12-20T02:11:07;12.73;;;12.13;;
6775;SDS011;3425;51.376;5.222;2023-12-20T02:13:34;12.60;;;12.00;;
6775;SDS011;3425;51.376;5.222;2023-12-20T02:16:05;12.90;;;12.30;;
6775;SDS011;3425;51.376;5.222;2023-12-20T02:18:33;12.63;;;12.02;;
6775;SDS011;3425;51.376;5.222;2023-12-20T02:21:01;12.68;;;12.07;;
6775;SDS011;3425;51.376;5.222;2023-12-20T02:23:28;12.82;;;12.23;;
6775;SDS011;3425;51.376;5.222;2023-12-20T02:25:55;13.50;;;12.70;;
6775;SDS011;3425;51.376;5.222;2023-12-20T02:28:22;13.20;;;12.50;;
6775;SDS011;3425;51.376;5.222;2023-12-20T02:30:50;13.90;;;13.15;;
6775;SDS011;3425;51.376;5.222;2023-12-20T02:33:18;13.93;;;13.15;;
6775;SDS011;3425;51.376;5.222;2023-12-20T02:35:46;14.13;;;13.23;;
6775;SDS011;3425;51.376;5.222;2023-12-20T02:38:14;12.80;;;12.20;;
6775;SDS011;3425;51.376;5.222;2023-12-20T02:40:41;13.88;;;13.18;;
6775;SDS011;3425;51.376;5.222;2023-12-20T02:43:15;12.90;;;12.30;;
6775;SDS011;3425;51.376;5.222;2023-12-20T02:45:43;14.43;;;13.48;;
6775;SDS011;3425;51.376;5.222;2023-12-20T02:48:10;13.02;;;12.43;;
6775;SDS011;3425;51.376;5.222;2023-12-20T02:50:37;13.30;;;12.60;;
6775;SDS011;3425;51.376;5.222;2023-12-20T02:53:05;12.82;;;12.23;;
6775;SDS011;3425;51.376;5.222;2023-12-20T02:55:32;14.70;;;13.75;;
6775;SDS011;3425;51.376;5.222;2023-12-20T02:58:00;12.55;;;11.95;;
6775;SDS011;3425;51.376;5.222;2023-12-20T03:00:27;13.65;;;12.85;;
6775;SDS011;3425;51.376;5.222;2023-12-20T03:02:55;13.40;;;12.43;;
6775;SDS011;3425;51.376;5.222;2023-12-20T03:05:23;12.73;;;12.13;;
6775;SDS011;3425;51.376;5.222;2023-12-20T03:07:50;13.80;;;13.00;;
6775;SDS011;3425;51.376;5.222;2023-12-20T03:10:18;13.20;;;12.52;;
6775;SDS011;3425;51.376;5.222;2023-12-20T03:12:52;14.20;;;13.30;;
6775;SDS011;3425;51.376;5.222;2023-12-20T03:15:20;13.15;;;12.48;;
6775;SDS011;3425;51.376;5.222;2023-12-20T03:17:47;13.40;;;12.70;;
6775;SDS011;3425;51.376;5.222;2023-12-20T03:20:14;12.90;;;12.30;;
6775;SDS011;3425;51.376;5.222;2023-12-20T03:22:42;13.30;;;12.60;;
6775;SDS011;3425;51.376;5.222;2023-12-20T03:25:09;12.75;;;12.15;;
6775;SDS011;3425;51.376;5.222;2023-12-20T03:27:37;12.85;;;12.25;;
6775;SDS011;3425;51.376;5.222;2023-12-20T03:30:08;14.75;;;13.35;;
6775;SDS011;3425;51.376;5.222;2023-12-20T03:32:36;14.57;;;13.75;;
6775;SDS011;3425;51.376;5.222;2023-12-20T03:35:04;13.85;;;12.82;;
6775;SDS011;3425;51.376;5.222;2023-12-20T03:37:31;13.77;;;13.07;;
6775;SDS011;3425;51.376;5.222;2023-12-20T03:39:58;13.20;;;12.50;;
6775;SDS011;3425;51.376;5.222;2023-12-20T03:42:26;13.80;;;12.90;;
6775;SDS011;3425;51.376;5.222;2023-12-20T03:44:53;13.30;;;12.57;;
6775;SDS011;3425;51.376;5.222;2023-12-20T03:47:20;12.80;;;12.20;;
6775;SDS011;3425;51.376;5.222;2023-12-20T03:49:48;12.82;;;12.23;;
6775;SDS011;3425;51.376;5.222;2023-12-20T03:52:15;12.93;;;12.32;;
6775;SDS011;3425;51.376;5.222;2023-12-20T03:54:42;12.55;;;11.95;;
6775;SDS011;3425;51.376;5.222;2023-12-20T03:57:10;12.90;;;12.30;;
6775;SDS011;3425;51.376;5.222;2023-12-20T03:59:37;14.02;;;13.13;;
6775;SDS011;3425;51.376;5.222;2023-12-20T04:02:05;12.73;;;12.13;;
6775;SDS011;3425;51.376;5.222;2023-12-20T04:04:35;12.95;;;12.27;;
6775;SDS011;3425;51.376;5.222;2023-12-20T04:07:02;13.15;;;12.48;;
6775;SDS011;3425;51.376;5.222;2023-12-20T04:09:31;12.57;;;11.98;;
6775;SDS011;3425;51.376;5.222;2023-12-20T04:11:59;13.35;;;12.65;;
6775;SDS011;3425;51.376;5.222;2023-12-20T04:14:27;13.13;;;12.40;;
6775;SDS011;3425;51.376;5.222;2023-12-20T04:16:54;13.65;;;12.85;;
6775;SDS011;3425;51.376;5.222;2023-12-20T04:19:21;12.80;;;12.20;;
6775;SDS011;3425;51.376;5.222;2023-12-20T04:21:49;12.52;;;11.93;;
6775;SDS011;3425;51.376;5.222;2023-12-20T04:24:16;13.95;;;12.93;;
6775;SDS011;3425;51.376;5.222;2023-12-20T04:26:43;12.68;;;12.07;;
6775;SDS011;3425;51.376;5.222;2023-12-20T04:29:11;13.30;;;12.52;;
6775;SDS011;3425;51.376;5.222;2023-12-20T04:31:38;14.00;;;13.20;;
6775;SDS011;3425;51.376;5.222;2023-12-20T04:34:05;13.23;;;12.52;;
6775;SDS011;3425;51.376;5.222;2023-12-20T04:36:33;12.63;;;12.02;;
6775;SDS011;3425;51.376;5.222;2023-12-20T04:39:00;13.25;;;12.57;;
6775;SDS011;3425;51.376;5.222;2023-12-20T04:41:27;13.50;;;12.80;;
6775;SDS011;3425;51.376;5.222;2023-12-20T04:43:55;13.70;;;13.00;;
6775;SDS011;3425;51.376;5.222;2023-12-20T04:46:22;13.23;;;12.52;;
6775;SDS011;3425;51.376;5.222;2023-12-20T04:48:50;13.30;;;12.60;;
6775;SDS011;3425;51.376;5.222;2023-12-20T04:51:18;14.13;;;13.32;;
6775;SDS011;3425;51.376;5.222;2023-12-20T04:53:45;13.60;;;12.90;;
6775;SDS011;3425;51.376;5.222;2023-12-20T04:56:12;13.63;;;12.82;;
6775;SDS011;3425;51.376;5.222;2023-12-20T04:58:40;13.55;;;12.70;;
6775;SDS011;3425;51.376;5.222;2023-12-20T05:01:09;13.45;;;12.75;;
6775;SDS011;3425;51.376;5.222;2023-12-20T05:03:40;16.85;;;13.65;;
6775;SDS011;3425;51.376;5.222;2023-12-20T05:06:08;15.05;;;14.13;;
6775;SDS011;3425;51.376;5.222;2023-12-20T05:08:35;14.02;;;13.32;;
6775;SDS011;3425;51.376;5.222;2023-12-20T05:11:02;13.90;;;13.20;;
6775;SDS011;3425;51.376;5.222;2023-12-20T05:13:30;14.45;;;13.70;;
6775;SDS011;3425;51.376;5.222;2023-12-20T05:16:13;13.98;;;13.27;;
6775;SDS011;3425;51.376;5.222;2023-12-20T05:18:41;15.25;;;14.20;;
6775;SDS011;3425;51.376;5.222;2023-12-20T05:21:08;15.52;;;14.43;;
6775;SDS011;3425;51.376;5.222;2023-12-20T05:23:35;24.08;;;15.32;;
6775;SDS011;3425;51.376;5.222;2023-12-20T05:26:02;14.60;;;13.80;;
6775;SDS011;3425;51.376;5.222;2023-12-20T05:28:30;14.88;;;14.07;;
6775;SDS011;3425;51.376;5.222;2023-12-20T05:30:57;15.20;;;14.40;;
6775;SDS011;3425;51.376;5.222;2023-12-20T05:33:25;14.40;;;13.70;;
6775;SDS011;3425;51.376;5.222;2023-12-20T05:35:52;14.00;;;13.30;;
6775;SDS011;3425;51.376;5.222;2023-12-20T05:38:22;16.10;;;13.82;;
6775;SDS011;3425;51.376;5.222;2023-12-20T05:40:49;14.57;;;13.77;;
6775;SDS011;3425;51.376;5.222;2023-12-20T05:43:17;13.88;;;13.18;;
6775;SDS011;3425;51.376;5.222;2023-12-20T05:45:46;14.00;;;13.30;;
6775;SDS011;3425;51.376;5.222;2023-12-20T05:48:13;15.45;;;14.40;;
6775;SDS011;3425;51.376;5.222;2023-12-20T05:50:41;14.27;;;13.57;;
6775;SDS011;3425;51.376;5.222;2023-12-20T05:53:08;14.18;;;13.48;;
6775;SDS011;3425;51.376;5.222;2023-12-20T05:55:35;14.18;;;13.48;;
6775;SDS011;3425;51.376;5.222;2023-12-20T05:58:03;14.80;;;14.00;;
6775;SDS011;3425;51.376;5.222;2023-12-20T06:00:31;14.95;;;14.15;;
6775;SDS011;3425;51.376;5.222;2023-12-20T06:02:58;16.13;;;15.00;;
6775;SDS011;3425;51.376;5.222;2023-12-20T06:05:26;14.93;;;14.13;;
6775;SDS011;3425;51.376;5.222;2023-12-20T06:07:53;14.43;;;13.68;;
6775;SDS011;3425;51.376;5.222;2023-12-20T06:10:23;14.85;;;14.05;;
6775;SDS011;3425;51.376;5.222;2023-12-20T06:12:50;17.88;;;15.38;;
6775;SDS011;3425;51.376;5.222;2023-12-20T06:15:18;16.00;;;15.00;;
6775;SDS011;3425;51.376;5.222;2023-12-20T06:17:46;16.20;;;14.73;;
6775;SDS011;3425;51.376;5.222;2023-12-20T06:20:15;15.00;;;14.20;;
6775;SDS011;3425;51.376;5.222;2023-12-20T06:22:42;14.43;;;13.73;;
6775;SDS011;3425;51.376;5.222;2023-12-20T06:25:09;14.77;;;13.98;;
6775;SDS011;3425;51.376;5.222;2023-12-20T06:27:37;14.98;;;14.18;;
6775;SDS011;3425;51.376;5.222;2023-12-20T06:30:04;15.43;;;14.57;;
6775;SDS011;3425;51.376;5.222;2023-12-20T06:32:31;15.52;;;14.63;;
6775;SDS011;3425;51.376;5.222;2023-12-20T06:35:00;14.70;;;13.90;;
6775;SDS011;3425;51.376;5.222;2023-12-20T06:37:28;16.13;;;15.23;;
6775;SDS011;3425;51.376;5.222;2023-12-20T06:39:56;16.05;;;15.05;;
6775;SDS011;3425;51.376;5.222;2023-12-20T06:42:23;15.57;;;14.77;;
6775;SDS011;3425;51.376;5.222;2023-12-20T06:44:50;15.32;;;14.52;;
6775;SDS011;3425;51.376;5.222;2023-12-20T06:47:19;15.13;;;14.32;;
6775;SDS011;3425;51.376;5.222;2023-12-20T06:49:46;17.13;;;15.43;;
6775;SDS011;3425;51.376;5.222;2023-12-20T06:52:14;15.68;;;14.77;;
6775;SDS011;3425;51.376;5.222;2023-12-20T06:54:41;15.88;;;15.07;;
6775;SDS011;3425;51.376;5.222;2023-12-20T06:57:08;15.65;;;14.75;;
6775;SDS011;3425;51.376;5.222;2023-12-20T06:59:39;15.50;;;14.70;;
6775;SDS011;3425;51.376;5.222;2023-12-20T07:02:06;16.08;;;15.18;;
6775;SDS011;3425;51.376;5.222;2023-12-20T07:04:41;15.85;;;14.88;;
6775;SDS011;3425;51.376;5.222;2023-12-20T07:07:08;15.07;;;14.27;;
6775;SDS011;3425;51.376;5.222;2023-12-20T07:09:36;15.63;;;14.80;;
6775;SDS011;3425;51.376;5.222;2023-12-20T07:12:04;16.55;;;15.27;;
6775;SDS011;3425;51.376;5.222;2023-12-20T07:14:32;15.65;;;14.75;;
6775;SDS011;3425;51.376;5.222;2023-12-20T07:16:59;15.27;;;14.45;;
6775;SDS011;3425;51.376;5.222;2023-12-20T07:19:26;14.95;;;14.15;;
6775;SDS011;3425;51.376;5.222;2023-12-20T07:21:53;15.05;;;14.25;;
6775;SDS011;3425;51.376;5.222;2023-12-20T07:24:20;16.95;;;15.43;;
6775;SDS011;3425;51.376;5.222;2023-12-20T07:26:48;15.10;;;14.30;;
6775;SDS011;3425;51.376;5.222;2023-12-20T07:29:16;16.92;;;15.88;;
6775;SDS011;3425;51.376;5.222;2023-12-20T07:31:43;15.40;;;14.60;;
6775;SDS011;3425;51.376;5.222;2023-12-20T07:34:11;16.40;;;15.40;;
6775;SDS011;3425;51.376;5.222;2023-12-20T07:36:39;16.30;;;15.30;;
6775;SDS011;3425;51.376;5.222;2023-12-20T07:39:07;16.75;;;15.73;;
6775;SDS011;3425;51.376;5.222;2023-12-20T07:41:34;16.30;;;15.30;;
6775;SDS011;3425;51.376;5.222;2023-12-20T07:44:01;15.55;;;14.75;;
6775;SDS011;3425;51.376;5.222;2023-12-20T07:46:28;15.27;;;14.48;;
6775;SDS011;3425;51.376;5.222;2023-12-20T07:48:56;17.15;;;16.15;;
6775;SDS011;3425;51.376;5.222;2023-12-20T07:51:23;16.05;;;15.15;;
6775;SDS011;3425;51.376;5.222;2023-12-20T07:53:51;16.30;;;15.40;;
6775;SDS011;3425;51.376;5.222;2023-12-20T07:56:19;16.20;;;15.30;;
6775;SDS011;3425;51.376;5.222;2023-12-20T07:58:46;17.63;;;16.25;;
6775;SDS011;3425;51.376;5.222;2023-12-20T08:01:19;16.73;;;15.82;;
6775;SDS011;3425;51.376;5.222;2023-12-20T08:03:48;15.98;;;15.07;;
6775;SDS011;3425;51.376;5.222;2023-12-20T08:06:16;16.00;;;15.10;;
6775;SDS011;3425;51.376;5.222;2023-12-20T08:08:44;15.32;;;14.52;;
6775;SDS011;3425;51.376;5.222;2023-12-20T08:11:18;16.20;;;15.30;;
6775;SDS011;3425;51.376;5.222;2023-12-20T08:13:45;17.02;;;15.90;;
6775;SDS011;3425;51.376;5.222;2023-12-20T08:16:12;16.30;;;15.40;;
6775;SDS011;3425;51.376;5.222;2023-12-20T08:18:42;19.00;;;17.48;;
6775;SDS011;3425;51.376;5.222;2023-12-20T08:21:12;15.57;;;14.77;;
6775;SDS011;3425;51.376;5.222;2023-12-20T08:23:40;15.85;;;15.05;;
6775;SDS011;3425;51.376;5.222;2023-12-20T08:26:07;15.40;;;14.50;;
6775;SDS011;3425;51.376;5.222;2023-12-20T08:28:36;15.43;;;14.60;;
6775;SDS011;3425;51.376;5.222;2023-12-20T08:31:03;26.75;;;14.40;;
6775;SDS011;3425;51.376;5.222;2023-12-20T08:33:31;14.50;;;13.70;;
6775;SDS011;3425;51.376;5.222;2023-12-20T08:35:59;13.80;;;13.10;;
6775;SDS011;3425;51.376;5.222;2023-12-20T08:38:26;14.77;;;13.98;;
6775;SDS011;3425;51.376;5.222;2023-12-20T08:40:53;13.30;;;12.60;;
6775;SDS011;3425;51.376;5.222;2023-12-20T08:43:21;13.52;;;12.82;;
6775;SDS011;3425;51.376;5.222;2023-12-20T08:45:48;15.35;;;14.10;;
6775;SDS011;3425;51.376;5.222;2023-12-20T08:48:15;12.80;;;12.20;;
6775;SDS011;3425;51.376;5.222;2023-12-20T08:50:43;13.30;;;12.60;;
6775;SDS011;3425;51.376;5.222;2023-12-20T08:53:10;13.63;;;12.93;;
6775;SDS011;3425;51.376;5.222;2023-12-20T08:55:38;12.93;;;12.32;;
6775;SDS011;3425;51.376;5.222;2023-12-20T08:58:05;12.00;;;11.40;;
6775;SDS011;3425;51.376;5.222;2023-12-20T09:00:36;11.70;;;11.10;;
6775;SDS011;3425;51.376;5.222;2023-12-20T09:03:05;11.68;;;11.07;;
6775;SDS011;3425;51.376;5.222;2023-12-20T09:05:32;11.73;;;11.13;;
6775;SDS011;3425;51.376;5.222;2023-12-20T09:08:02;11.90;;;11.30;;
6775;SDS011;3425;51.376;5.222;2023-12-20T09:10:29;12.70;;;12.00;;
6775;SDS011;3425;51.376;5.222;2023-12-20T09:12:58;12.20;;;11.60;;
6775;SDS011;3425;51.376;5.222;2023-12-20T09:15:25;13.10;;;12.30;;
6775;SDS011;3425;51.376;5.222;2023-12-20T09:17:53;12.20;;;11.60;;
6775;SDS011;3425;51.376;5.222;2023-12-20T09:20:22;12.20;;;11.60;;
6775;SDS011;3425;51.376;5.222;2023-12-20T09:22:50;12.80;;;11.93;;
6775;SDS011;3425;51.376;5.222;2023-12-20T09:25:17;12.25;;;11.65;;
6775;SDS011;3425;51.376;5.222;2023-12-20T09:27:44;12.23;;;11.35;;
6775;SDS011;3425;51.376;5.222;2023-12-20T09:30:12;11.70;;;11.10;;
6775;SDS011;3425;51.376;5.222;2023-12-20T09:32:52;11.90;;;11.30;;
6775;SDS011;3425;51.376;5.222;2023-12-20T09:35:20;12.55;;;11.85;;
6775;SDS011;3425;51.376;5.222;2023-12-20T09:37:47;12.30;;;11.70;;
6775;SDS011;3425;51.376;5.222;2023-12-20T09:40:14;12.20;;;11.60;;
6775;SDS011;3425;51.376;5.222;2023-12-20T09:45:30;12.00;;;11.40;;
6775;SDS011;3425;51.376;5.222;2023-12-20T09:47:58;11.68;;;11.07;;
6775;SDS011;3425;51.376;5.222;2023-12-20T09:50:26;11.13;;;10.63;;
6775;SDS011;3425;51.376;5.222;2023-12-20T09:52:54;11.98;;;11.38;;
6775;SDS011;3425;51.376;5.222;2023-12-20T09:55:22;11.90;;;11.27;;
6775;SDS011;3425;51.376;5.222;2023-12-20T09:57:51;11.35;;;10.85;;
6775;SDS011;3425;51.376;5.222;2023-12-20T10:00:19;11.55;;;11.02;;
6775;SDS011;3425;51.376;5.222;2023-12-20T10:02:50;11.15;;;10.65;;
6775;SDS011;3425;51.376;5.222;2023-12-20T10:05:19;11.02;;;10.52;;
6775;SDS011;3425;51.376;5.222;2023-12-20T10:07:50;11.57;;;10.98;;
6775;SDS011;3425;51.376;5.222;2023-12-20T10:10:18;16.30;;;11.27;;
6775;SDS011;3425;51.376;5.222;2023-12-20T10:13:00;12.10;;;11.48;;
6775;SDS011;3425;51.376;5.222;2023-12-20T10:15:28;13.70;;;12.10;;
6775;SDS011;3425;51.376;5.222;2023-12-20T10:17:55;11.13;;;10.63;;
6775;SDS011;3425;51.376;5.222;2023-12-20T10:20:27;11.60;;;11.00;;
6775;SDS011;3425;51.376;5.222;2023-12-20T10:22:56;11.25;;;10.75;;
6775;SDS011;3425;51.376;5.222;2023-12-20T10:25:23;11.63;;;11.05;;
6775;SDS011;3425;51.376;5.222;2023-12-20T10:28:13;11.90;;;11.30;;
6775;SDS011;3425;51.376;5.222;2023-12-20T10:30:40;11.25;;;10.70;;
6775;SDS011;3425;51.376;5.222;2023-12-20T10:33:09;11.38;;;10.85;;
6775;SDS011;3425;51.376;5.222;2023-12-20T10:35:38;10.88;;;10.38;;
6775;SDS011;3425;51.376;5.222;2023-12-20T10:38:11;12.32;;;11.63;;
6775;SDS011;3425;51.376;5.222;2023-12-20T10:40:40;10.85;;;10.35;;
6775;SDS011;3425;51.376;5.222;2023-12-20T10:43:08;10.95;;;10.35;;
6775;SDS011;3425;51.376;5.222;2023-12-20T10:45:36;10.85;;;10.35;;
6775;SDS011;3425;51.376;5.222;2023-12-20T10:48:03;11.65;;;11.05;;
6775;SDS011;3425;51.376;5.222;2023-12-20T10:50:31;11.75;;;11.02;;
6775;SDS011;3425;51.376;5.222;2023-12-20T10:52:59;10.30;;;9.80;;
6775;SDS011;3425;51.376;5.222;2023-12-20T10:55:27;11.13;;;10.63;;
6775;SDS011;3425;51.376;5.222;2023-12-20T10:58:07;11.75;;;11.15;;
6775;SDS011;3425;51.376;5.222;2023-12-20T11:00:36;12.60;;;11.80;;
6775;SDS011;3425;51.376;5.222;2023-12-20T11:03:08;10.35;;;9.85;;
6775;SDS011;3425;51.376;5.222;2023-12-20T11:08:39;9.55;;;9.15;;
6775;SDS011;3425;51.376;5.222;2023-12-20T11:11:12;9.20;;;8.80;;
6775;SDS011;3425;51.376;5.222;2023-12-20T11:13:43;10.57;;;10.07;;
6775;SDS011;3425;51.376;5.222;2023-12-20T11:16:15;9.23;;;8.82;;
6775;SDS011;3425;51.376;5.222;2023-12-20T11:18:44;9.68;;;9.27;;
6775;SDS011;3425;51.376;5.222;2023-12-20T11:21:12;8.90;;;8.50;;
6775;SDS011;3425;51.376;5.222;2023-12-20T11:23:40;9.63;;;8.77;;
6775;SDS011;3425;51.376;5.222;2023-12-20T11:26:09;7.95;;;7.65;;
6775;SDS011;3425;51.376;5.222;2023-12-20T11:28:37;9.02;;;8.43;;
6775;SDS011;3425;51.376;5.222;2023-12-20T11:31:05;8.70;;;8.30;;
6775;SDS011;3425;51.376;5.222;2023-12-20T11:33:36;8.68;;;8.07;;
6775;SDS011;3425;51.376;5.222;2023-12-20T11:36:12;7.10;;;6.80;;
6775;SDS011;3425;51.376;5.222;2023-12-20T11:41:40;22.17;;;8.00;;
6775;SDS011;3425;51.376;5.222;2023-12-20T11:44:07;6.45;;;5.95;;
6775;SDS011;3425;51.376;5.222;2023-12-20T11:46:35;5.50;;;5.30;;
6775;SDS011;3425;51.376;5.222;2023-12-20T11:49:02;4.60;;;4.40;;
6775;SDS011;3425;51.376;5.222;2023-12-20T11:51:31;4.18;;;4.07;;
6775;SDS011;3425;51.376;5.222;2023-12-20T11:53:58;5.82;;;5.32;;
6775;SDS011;3425;51.376;5.222;2023-12-20T11:56:25;3.45;;;3.35;;
6775;SDS011;3425;51.376;5.222;2023-12-20T11:58:53;3.33;;;3.22;;
6775;SDS011;3425;51.376;5.222;2023-12-20T12:01:31;3.75;;;3.55;;
6775;SDS011;3425;51.376;5.222;2023-12-20T12:04:05;3.20;;;3.10;;
6775;SDS011;3425;51.376;5.222;2023-12-20T12:06:32;3.00;;;2.90;;
6775;SDS011;3425;51.376;5.222;2023-12-20T12:09:00;2.40;;;2.40;;
6775;SDS011;3425;51.376;5.222;2023-12-20T12:11:27;2.83;;;2.72;;
6775;SDS011;3425;51.376;5.222;2023-12-20T12:13:54;2.13;;;2.13;;
6775;SDS011;3425;51.376;5.222;2023-12-20T12:16:22;1.42;;;1.42;;
6775;SDS011;3425;51.376;5.222;2023-12-20T12:18:58;1.58;;;1.52;;
6775;SDS011;3425;51.376;5.222;2023-12-20T12:21:26;6.03;;;1.55;;
6775;SDS011;3425;51.376;5.222;2023-12-20T12:24:08;3.83;;;2.90;;
6775;SDS011;3425;51.376;5.222;2023-12-20T12:26:36;1.00;;;1.00;;
6775;SDS011;3425;51.376;5.222;2023-12-20T12:29:03;2.10;;;1.95;;
6775;SDS011;3425;51.376;5.222;2023-12-20T12:31:34;6.43;;;2.42;;
6775;SDS011;3425;51.376;5.222;2023-12-20T12:34:02;1.40;;;1.40;;
6775;SDS011;3425;51.376;5.222;2023-12-20T12:36:30;6.15;;;3.35;;
6775;SDS011;3425;51.376;5.222;2023-12-20T12:38:57;1.33;;;1.33;;
6775;SDS011;3425;51.376;5.222;2023-12-20T12:41:24;0.95;;;0.95;;
6775;SDS011;3425;51.376;5.222;2023-12-20T12:43:51;1.10;;;1.05;;
6775;SDS011;3425;51.376;5.222;2023-12-20T12:46:21;0.90;;;0.90;;
6775;SDS011;3425;51.376;5.222;2023-12-20T12:48:48;2.08;;;1.92;;
6775;SDS011;3425;51.376;5.222;2023-12-20T12:51:16;1.27;;;1.27;;
6775;SDS011;3425;51.376;5.222;2023-12-20T12:53:43;1.13;;;1.05;;
6775;SDS011;3425;51.376;5.222;2023-12-20T12:56:12;2.25;;;2.15;;
6775;SDS011;3425;51.376;5.222;2023-12-20T12:58:40;2.45;;;2.25;;
6775;SDS011;3425;51.376;5.222;2023-12-20T13:01:07;1.52;;;1.42;;
6775;SDS011;3425;51.376;5.222;2023-12-20T13:03:35;10.13;;;1.17;;
6775;SDS011;3425;51.376;5.222;2023-12-20T13:06:03;1.27;;;0.93;;
6775;SDS011;3425;51.376;5.222;2023-12-20T13:08:32;0.80;;;0.80;;
6775;SDS011;3425;51.376;5.222;2023-12-20T13:11:00;4.30;;;1.30;;
6775;SDS011;3425;51.376;5.222;2023-12-20T13:13:30;1.70;;;1.60;;
6775;SDS011;3425;51.376;5.222;2023-12-20T13:15:58;2.15;;;2.00;;
6775;SDS011;3425;51.376;5.222;2023-12-20T13:18:27;1.00;;;1.00;;
6775;SDS011;3425;51.376;5.222;2023-12-20T13:20:54;3.40;;;1.15;;
6775;SDS011;3425;51.376;5.222;2023-12-20T13:23:22;2.05;;;1.63;;
6775;SDS011;3425;51.376;5.222;2023-12-20T13:25:49;1.42;;;1.42;;
6775;SDS011;3425;51.376;5.222;2023-12-20T13:28:16;3.67;;;1.77;;
6775;SDS011;3425;51.376;5.222;2023-12-20T13:30:44;1.35;;;1.27;;
6775;SDS011;3425;51.376;5.222;2023-12-20T13:33:11;2.72;;;1.50;;
6775;SDS011;3425;51.376;5.222;2023-12-20T13:35:43;0.88;;;0.88;;
6775;SDS011;3425;51.376;5.222;2023-12-20T13:38:12;0.88;;;0.88;;
6775;SDS011;3425;51.376;5.222;2023-12-20T13:40:40;2.40;;;2.30;;
6775;SDS011;3425;51.376;5.222;2023-12-20T13:43:08;1.10;;;1.10;;
6775;SDS011;3425;51.376;5.222;2023-12-20T13:45:38;0.70;;;0.70;;
6775;SDS011;3425;51.376;5.222;2023-12-20T13:48:06;0.80;;;0.80;;
6775;SDS011;3425;51.376;5.222;2023-12-20T13:50:34;3.13;;;1.85;;
6775;SDS011;3425;51.376;5.222;2023-12-20T13:53:01;1.35;;;1.35;;
6775;SDS011;3425;51.376;5.222;2023-12-20T13:55:30;0.93;;;0.93;;
6775;SDS011;3425;51.376;5.222;2023-12-20T13:57:58;17.23;;;0.98;;
6775;SDS011;3425;51.376;5.222;2023-12-20T14:00:25;1.35;;;1.35;;
6775;SDS011;3425;51.376;5.222;2023-12-20T14:02:54;0.70;;;0.70;;
6775;SDS011;3425;51.376;5.222;2023-12-20T14:05:21;3.03;;;1.45;;
6775;SDS011;3425;51.376;5.222;2023-12-20T14:07:54;0.65;;;0.65;;
6775;SDS011;3425;51.376;5.222;2023-12-20T14:10:24;5.38;;;1.85;;
6775;SDS011;3425;51.376;5.222;2023-12-20T14:12:54;1.13;;;1.13;;
6775;SDS011;3425;51.376;5.222;2023-12-20T14:15:22;0.75;;;0.75;;
6775;SDS011;3425;51.376;5.222;2023-12-20T14:17:52;1.10;;;1.08;;
6775;SDS011;3425;51.376;5.222;2023-12-20T14:20:21;1.48;;;1.38;;
6775;SDS011;3425;51.376;5.222;2023-12-20T14:22:48;0.70;;;0.70;;
6775;SDS011;3425;51.376;5.222;2023-12-20T14:25:16;1.65;;;1.00;;
6775;SDS011;3425;51.376;5.222;2023-12-20T14:27:43;2.22;;;1.75;;
6775;SDS011;3425;51.376;5.222;2023-12-20T14:30:12;3.83;;;3.05;;
6775;SDS011;3425;51.376;5.222;2023-12-20T14:32:41;2.85;;;1.60;;
6775;SDS011;3425;51.376;5.222;2023-12-20T14:35:08;0.73;;;0.73;;
6775;SDS011;3425;51.376;5.222;2023-12-20T14:37:36;0.98;;;0.98;;
6775;SDS011;3425;51.376;5.222;2023-12-20T14:40:07;0.90;;;0.90;;
6775;SDS011;3425;51.376;5.222;2023-12-20T14:42:42;1.77;;;1.58;;
6775;SDS011;3425;51.376;5.222;2023-12-20T14:45:09;3.20;;;1.83;;
6775;SDS011;3425;51.376;5.222;2023-12-20T14:47:37;3.28;;;1.10;;
6775;SDS011;3425;51.376;5.222;2023-12-20T14:50:05;6.43;;;2.15;;
6775;SDS011;3425;51.376;5.222;2023-12-20T14:52:33;0.60;;;0.60;;
6775;SDS011;3425;51.376;5.222;2023-12-20T14:55:00;0.70;;;0.70;;
6775;SDS011;3425;51.376;5.222;2023-12-20T14:57:29;0.70;;;0.70;;
6775;SDS011;3425;51.376;5.222;2023-12-20T14:59:56;0.65;;;0.65;;
6775;SDS011;3425;51.376;5.222;2023-12-20T15:02:23;6.35;;;2.60;;
6775;SDS011;3425;51.376;5.222;2023-12-20T15:04:52;1.13;;;1.13;;
6775;SDS011;3425;51.376;5.222;2023-12-20T15:07:19;0.80;;;0.80;;
6775;SDS011;3425;51.376;5.222;2023-12-20T15:09:47;0.95;;;0.95;;